Main page
METAR-TAF:

METAR-TAF

Airports :

Lamerd Airport

Lamerd, Iran

latitude: 27-22-22N, longitude: 53-11-20E, elevation: 408 m

Current weather observation

The report was made 11 hours and 24 minutes ago, at 14:00 UTC
Calm wind
Temperature 23°C
Humidity 29%
Pressure 1017 hPa
Visibility 10 km or more
no clouds below 1500 m and no cumulonimbus

METAR: OISR 141400Z 00000KT CAVOK 23/04 Q1017 A3004

Time: 04:54 (01:24 UTC)


TAF: missing

Weather observations and forecasts of more than 4000 airports (METAR and TAF reports).

The available stations are represented by yellow and red dots on the map.

Hover mouse over dot to see the name of the station.

Then click to see weather observations and forecasts.

To change the map : click on the green buttons with a black cross to zoom in, on the green button with a dash to zoom out, or on the green arrows for adjacent maps.


METAR-TAF: